createdAt,value
2019-06-27T00:01:39.985Z,98506.47
2019-06-27T00:04:11.211Z,98506.11
2019-06-27T00:06:42.090Z,98503.09
2019-06-27T00:09:14.535Z,98506.95
2019-06-27T00:11:45.256Z,98513.48
2019-06-27T00:14:15.925Z,98516.14
2019-06-27T00:16:46.669Z,98513.13
2019-06-27T00:19:17.461Z,98516.55
2019-06-27T00:21:48.250Z,98512.55
2019-06-27T00:24:19.105Z,98511.00
2019-06-27T00:26:57.041Z,98512.98
2019-06-27T00:29:22.442Z,98512.89
2019-06-27T00:31:53.266Z,98509.24
2019-06-27T00:34:24.058Z,98515.48
2019-06-27T00:36:54.827Z,98514.42
2019-06-27T00:39:25.602Z,98515.75
2019-06-27T00:41:56.441Z,98516.03
2019-06-27T00:44:27.223Z,98516.39
2019-06-27T00:46:58.028Z,98517.36
2019-06-27T00:49:28.716Z,98521.71
2019-06-27T00:51:59.582Z,98518.50
2019-06-27T00:54:30.331Z,98517.88
2019-06-27T00:57:13.659Z,98528.02
2019-06-27T00:59:33.940Z,98528.72
2019-06-27T01:02:04.728Z,98524.25
2019-06-27T01:04:35.438Z,98523.89
2019-06-27T01:07:06.294Z,98521.36
2019-06-27T01:09:37.149Z,98525.22
2019-06-27T01:12:07.876Z,98532.72
2019-06-27T01:14:38.645Z,98528.37
2019-06-27T01:17:09.806Z,98537.98
2019-06-27T01:19:40.660Z,98527.73
2019-06-27T01:22:11.940Z,98525.98
2019-06-27T01:24:42.696Z,98528.78
2019-06-27T01:27:28.875Z,98534.04
2019-06-27T01:29:45.852Z,98533.33
2019-06-27T01:32:16.558Z,98539.88
2019-06-27T01:34:47.490Z,98531.16
2019-06-27T01:37:18.298Z,98532.97
2019-06-27T01:39:51.676Z,98536.83
2019-06-27T01:42:22.422Z,98535.02
2019-06-27T01:44:58.065Z,98540.83
2019-06-27T01:47:28.840Z,98537.87
2019-06-27T01:49:59.670Z,98544.26
2019-06-27T01:52:30.520Z,98547.63
2019-06-27T01:55:01.286Z,98550.16
2019-06-27T01:57:46.156Z,98553.16
2019-06-27T02:00:11.119Z,98550.78
2019-06-27T02:02:42.004Z,98546.56
2019-06-27T02:05:13.766Z,98545.72
2019-06-27T02:07:44.730Z,98552.67
2019-06-27T02:10:15.968Z,98554.27
2019-06-27T02:12:46.832Z,98555.23
2019-06-27T02:15:22.089Z,98553.84
2019-06-27T02:17:51.927Z,98559.91
2019-06-27T02:20:22.758Z,98568.51
2019-06-27T02:22:53.558Z,98557.18
2019-06-27T02:25:24.499Z,98560.33
2019-06-27T02:28:03.769Z,98563.83
2019-06-27T02:30:30.823Z,98562.14
2019-06-27T02:33:01.569Z,98566.27
2019-06-27T02:35:32.488Z,98556.59
2019-06-27T02:38:03.349Z,98561.91
2019-06-27T02:40:34.145Z,98556.36
2019-06-27T02:43:05.125Z,98557.02
2019-06-27T02:45:35.891Z,98550.59
2019-06-27T02:48:06.755Z,98548.31
2019-06-27T02:50:37.600Z,98549.09
2019-06-27T02:53:08.458Z,98542.69
2019-06-27T02:55:39.237Z,98544.31
2019-06-27T02:58:28.746Z,98544.08
2019-06-27T03:00:42.415Z,98538.66
2019-06-27T03:03:13.141Z,98536.77
2019-06-27T03:05:43.968Z,98540.77
2019-06-27T03:08:15.026Z,98544.75
2019-06-27T03:10:45.898Z,98539.56
2019-06-27T03:13:16.753Z,98532.20
2019-06-27T03:15:47.542Z,98534.86
2019-06-27T03:18:18.394Z,98532.48
2019-06-27T03:20:49.085Z,98531.16
2019-06-27T03:23:19.871Z,98531.03
2019-06-27T03:25:50.561Z,98539.08
2019-06-27T03:28:21.445Z,98542.45
2019-06-27T03:30:52.326Z,98546.31
2019-06-27T03:33:23.049Z,98541.48
2019-06-27T03:35:54.102Z,98541.48
2019-06-27T03:38:25.064Z,98545.59
2019-06-27T03:40:55.872Z,98552.73
2019-06-27T03:43:26.577Z,98552.24
2019-06-27T03:45:57.372Z,98547.64
2019-06-27T03:48:28.228Z,98547.00
2019-06-27T03:50:58.938Z,98549.14
2019-06-27T03:53:29.664Z,98554.53
2019-06-27T03:56:03.241Z,98548.47
2019-06-27T03:58:34.127Z,98548.31
2019-06-27T04:01:05.219Z,98543.09
2019-06-27T04:03:35.994Z,98548.88
2019-06-27T04:06:06.676Z,98555.75
2019-06-27T04:08:37.390Z,98563.73
2019-06-27T04:11:08.072Z,98560.33
2019-06-27T04:13:38.868Z,98563.19
2019-06-27T04:16:09.660Z,98561.11
2019-06-27T04:18:40.598Z,98563.58
2019-06-27T04:21:14.559Z,98560.00
2019-06-27T04:23:45.396Z,98564.58
2019-06-27T04:26:16.270Z,98572.50
2019-06-27T04:28:47.185Z,98567.27
2019-06-27T04:31:17.976Z,98567.69
2019-06-27T04:33:48.833Z,98558.59
2019-06-27T04:36:19.616Z,98562.73
2019-06-27T04:38:50.601Z,98565.91
2019-06-27T04:41:21.486Z,98561.87
2019-06-27T04:43:52.266Z,98568.54
2019-06-27T04:46:23.630Z,98567.84
2019-06-27T04:48:54.421Z,98568.82
2019-06-27T04:51:25.371Z,98572.03
2019-06-27T04:53:56.163Z,98573.80
2019-06-27T04:56:26.884Z,98569.58
2019-06-27T04:58:57.589Z,98571.39
2019-06-27T05:01:28.286Z,98575.73
2019-06-27T05:03:59.061Z,98578.66
2019-06-27T05:06:29.905Z,98580.56
2019-06-27T05:09:00.671Z,98584.47
2019-06-27T05:11:31.465Z,98583.84
2019-06-27T05:14:02.181Z,98587.75
2019-06-27T05:16:32.943Z,98588.20
2019-06-27T05:19:03.666Z,98589.17
2019-06-27T05:21:34.382Z,98590.37
2019-06-27T05:24:05.240Z,98592.31
2019-06-27T05:26:36.972Z,98592.84
2019-06-27T05:29:07.672Z,98591.02
2019-06-27T05:31:38.409Z,98591.73
2019-06-27T05:34:09.114Z,98580.08
2019-06-27T05:36:39.804Z,98588.06
2019-06-27T05:39:10.652Z,98592.90
2019-06-27T05:41:41.458Z,98598.70
2019-06-27T05:44:12.170Z,98595.78
2019-06-27T05:46:42.848Z,98593.64
2019-06-27T05:49:13.774Z,98604.06
2019-06-27T05:51:44.476Z,98607.33
2019-06-27T05:54:15.344Z,98614.66
2019-06-27T05:56:46.485Z,98619.19
2019-06-27T05:59:17.310Z,98619.61
2019-06-27T06:01:48.166Z,98609.62
2019-06-27T06:04:18.877Z,98621.67
2019-06-27T06:06:49.592Z,98619.39
2019-06-27T06:09:20.353Z,98615.73
2019-06-27T06:11:51.320Z,98622.37
2019-06-27T06:14:22.177Z,98621.93
2019-06-27T06:16:53.027Z,98630.58
2019-06-27T06:19:23.860Z,98624.27
2019-06-27T06:21:55.039Z,98635.39
2019-06-27T06:24:25.993Z,98641.55
2019-06-27T06:26:56.755Z,98641.48
2019-06-27T06:29:27.522Z,98654.27
2019-06-27T06:31:58.308Z,98651.48
2019-06-27T06:34:29.148Z,98664.30
2019-06-27T06:36:59.986Z,98653.09
2019-06-27T06:39:30.893Z,98653.09
2019-06-27T06:42:01.641Z,98656.38
2019-06-27T06:44:32.809Z,98649.45
2019-06-27T06:47:03.621Z,98649.45
2019-06-27T06:49:34.505Z,98660.98
2019-06-27T06:52:05.344Z,98669.64
2019-06-27T06:54:36.138Z,98654.03
2019-06-27T06:57:06.981Z,98667.63
2019-06-27T06:59:37.952Z,98659.53
2019-06-27T07:02:08.872Z,98666.17
2019-06-27T07:04:39.765Z,98664.16
2019-06-27T07:07:13.165Z,98663.66
2019-06-27T07:09:43.197Z,98657.84
2019-06-27T07:12:14.120Z,98661.17
2019-06-27T07:14:44.969Z,98662.80
2019-06-27T07:17:15.849Z,98660.84
2019-06-27T07:19:46.690Z,98658.23
2019-06-27T07:22:20.523Z,98651.84
2019-06-27T07:24:51.369Z,98653.55
2019-06-27T07:27:22.224Z,98654.54
2019-06-27T07:29:53.081Z,98650.89
2019-06-27T07:32:23.826Z,98651.92
2019-06-27T07:34:54.709Z,98647.48
2019-06-27T07:37:25.498Z,98643.81
2019-06-27T07:39:56.420Z,98635.97
2019-06-27T07:42:27.212Z,98638.79
2019-06-27T07:44:58.025Z,98635.55
2019-06-27T07:47:28.874Z,98633.12
2019-06-27T07:49:59.673Z,98633.48
2019-06-27T07:52:30.662Z,98625.84
2019-06-27T07:55:01.586Z,98626.03
2019-06-27T07:57:32.456Z,98621.05
2019-06-27T08:00:08.000Z,98626.77
2019-06-27T08:02:38.998Z,98620.02
2019-06-27T08:05:10.537Z,98624.25
2019-06-27T08:07:41.737Z,98627.30
2019-06-27T08:10:14.393Z,98631.59
2019-06-27T08:12:45.228Z,98629.07
2019-06-27T08:15:16.658Z,98615.95
2019-06-27T08:17:47.478Z,98615.55
2019-06-27T08:20:18.482Z,98626.22
2019-06-27T08:22:49.285Z,98633.64
2019-06-27T08:25:20.486Z,98625.06
2019-06-27T08:27:51.327Z,98624.98
2019-06-27T08:30:22.328Z,98620.17
2019-06-27T08:32:56.207Z,98620.37
2019-06-27T08:35:26.997Z,98621.27
2019-06-27T08:37:57.829Z,98621.34
2019-06-27T08:40:28.786Z,98614.55
2019-06-27T08:42:59.612Z,98615.91
2019-06-27T08:45:30.476Z,98623.28
2019-06-27T08:48:01.326Z,98628.26
2019-06-27T08:50:32.194Z,98629.89
2019-06-27T08:53:03.095Z,98624.05
2019-06-27T08:55:33.959Z,98623.58
2019-06-27T08:58:04.821Z,98617.12
2019-06-27T09:00:35.679Z,98619.52
2019-06-27T09:03:06.644Z,98620.58
2019-06-27T09:05:37.696Z,98624.85
2019-06-27T09:08:08.642Z,98620.19
2019-06-27T09:10:39.621Z,98623.42
2019-06-27T09:13:10.452Z,98617.80
2019-06-27T09:15:41.313Z,98620.45
2019-06-27T09:18:12.223Z,98616.38
2019-06-27T09:20:43.070Z,98614.83
2019-06-27T09:23:14.051Z,98615.37
2019-06-27T09:25:44.975Z,98623.44
2019-06-27T09:28:16.146Z,98618.55
2019-06-27T09:30:47.010Z,98626.91
2019-06-27T09:33:17.878Z,98626.15
2019-06-27T09:35:48.644Z,98620.23
2019-06-27T09:38:19.415Z,98624.47
2019-06-27T09:40:50.197Z,98614.72
2019-06-27T09:43:21.101Z,98621.39
2019-06-27T09:45:51.929Z,98615.17
2019-06-27T09:48:23.091Z,98616.32
2019-06-27T09:50:54.063Z,98614.83
2019-06-27T09:53:24.983Z,98619.02
2019-06-27T09:55:55.774Z,98627.67
2019-06-27T09:58:26.538Z,98623.52
2019-06-27T10:00:57.483Z,98612.94
2019-06-27T10:03:28.282Z,98627.47
2019-06-27T10:05:59.146Z,98627.47
2019-06-27T10:08:29.990Z,98620.70
2019-06-27T10:11:00.868Z,98627.89
2019-06-27T10:13:31.889Z,98620.14
2019-06-27T10:16:02.757Z,98626.70
2019-06-27T10:18:33.510Z,98621.59
2019-06-27T10:21:04.413Z,98620.12
2019-06-27T10:23:35.161Z,98625.83
2019-06-27T10:26:06.126Z,98624.89
2019-06-27T10:28:36.994Z,98626.95
2019-06-27T10:31:07.910Z,98621.87
2019-06-27T10:33:38.673Z,98617.60
2019-06-27T10:36:09.587Z,98625.75
2019-06-27T10:38:40.457Z,98626.45
2019-06-27T10:41:11.304Z,98622.38
2019-06-27T10:43:42.213Z,98628.39
2019-06-27T10:46:13.062Z,98620.43
2019-06-27T10:48:43.896Z,98625.61
2019-06-27T10:51:14.784Z,98625.15
2019-06-27T10:53:45.666Z,98630.22
2019-06-27T10:56:16.446Z,98628.27
2019-06-27T10:58:47.306Z,98634.48
2019-06-27T11:01:18.564Z,98629.70
2019-06-27T11:03:50.036Z,98616.88
2019-06-27T11:06:20.861Z,98622.05
2019-06-27T11:08:51.618Z,98637.91
2019-06-27T11:11:22.474Z,98628.91
2019-06-27T11:13:58.887Z,98623.55
2019-06-27T11:16:26.380Z,98627.92
2019-06-27T11:18:57.556Z,98618.62
2019-06-27T11:21:28.413Z,98626.88
2019-06-27T11:23:59.181Z,98619.67
2019-06-27T11:26:29.961Z,98613.12
2019-06-27T11:29:00.857Z,98611.59
2019-06-27T11:31:31.645Z,98605.99
2019-06-27T11:34:02.410Z,98604.98
2019-06-27T11:36:33.310Z,98596.12
2019-06-27T11:39:05.593Z,98595.99
2019-06-27T11:41:36.372Z,98593.76
2019-06-27T11:44:07.235Z,98586.03
2019-06-27T11:46:38.050Z,98589.72
2019-06-27T11:49:08.842Z,98588.15
2019-06-27T11:51:39.606Z,98583.61
2019-06-27T11:54:10.378Z,98579.48
2019-06-27T11:56:41.367Z,98582.46
2019-06-27T11:59:12.294Z,98577.82
2019-06-27T12:01:43.833Z,98582.25
2019-06-27T12:04:14.706Z,98577.06
2019-06-27T12:06:45.569Z,98580.15
2019-06-27T12:09:16.383Z,98573.20
2019-06-27T12:11:47.178Z,98568.45
2019-06-27T12:14:19.621Z,98566.99
2019-06-27T12:16:50.560Z,98563.99
2019-06-27T12:19:21.385Z,98550.01
2019-06-27T12:21:52.150Z,98545.95
2019-06-27T12:24:23.026Z,98556.73
2019-06-27T12:26:53.871Z,98545.04
2019-06-27T12:29:24.614Z,98551.21
2019-06-27T12:31:55.401Z,98550.70
2019-06-27T12:34:26.152Z,98541.22
2019-06-27T12:36:56.914Z,98555.61
2019-06-27T12:39:27.694Z,98555.59
2019-06-27T12:41:59.009Z,98545.42
2019-06-27T12:44:29.870Z,98535.42
2019-06-27T12:47:00.788Z,98546.05
2019-06-27T12:49:50.136Z,98548.59
2019-06-27T12:52:04.164Z,98546.13
2019-06-27T12:54:35.070Z,98537.59
2019-06-27T12:57:05.918Z,98532.66
2019-06-27T12:59:39.548Z,98533.11
2019-06-27T13:02:11.622Z,98536.66
2019-06-27T13:04:41.935Z,98530.02
2019-06-27T13:07:12.782Z,98535.00
2019-06-27T13:09:43.635Z,98543.27
2019-06-27T13:12:14.451Z,98540.16
2019-06-27T13:14:45.314Z,98530.05
2019-06-27T13:17:16.180Z,98526.20
2019-06-27T13:19:47.470Z,98514.98
2019-06-27T13:22:18.255Z,98524.27
2019-06-27T13:24:49.059Z,98517.41
2019-06-27T13:27:19.979Z,98515.70
2019-06-27T13:29:53.685Z,98516.59
2019-06-27T13:32:25.563Z,98514.91
2019-06-27T13:34:56.500Z,98517.17
2019-06-27T13:37:29.990Z,98524.65
2019-06-27T13:39:59.857Z,98516.33
2019-06-27T13:42:30.632Z,98505.59
2019-06-27T13:45:01.547Z,98521.78
2019-06-27T13:47:32.303Z,98512.66
2019-06-27T13:50:03.341Z,98507.44
2019-06-27T13:52:34.162Z,98509.55
2019-06-27T13:55:05.437Z,98511.52
2019-06-27T13:57:36.297Z,98500.70
2019-06-27T14:00:08.187Z,98502.42
2019-06-27T14:02:39.110Z,98506.78
2019-06-27T14:05:10.024Z,98511.35
2019-06-27T14:07:40.883Z,98511.13
2019-06-27T14:10:12.111Z,98498.75
2019-06-27T14:12:44.839Z,98500.25
2019-06-27T14:15:15.706Z,98490.75
2019-06-27T14:17:46.583Z,98492.83
2019-06-27T14:20:17.483Z,98493.59
2019-06-27T14:22:48.598Z,98500.53
2019-06-27T14:25:31.323Z,98505.95
2019-06-27T14:28:39.019Z,98496.01
2019-06-27T14:31:13.875Z,98491.46
2019-06-27T14:33:44.849Z,98486.28
2019-06-27T14:36:15.617Z,98486.20
2019-06-27T14:38:46.550Z,98479.54
2019-06-27T14:41:17.308Z,98483.11
2019-06-27T14:43:48.168Z,98477.87
2019-06-27T14:46:19.050Z,98472.33
2019-06-27T14:48:49.976Z,98474.98
2019-06-27T14:51:20.896Z,98477.38
2019-06-27T14:53:51.734Z,98467.31
2019-06-27T14:56:22.659Z,98470.64
2019-06-27T14:58:53.799Z,98481.82
2019-06-27T15:01:24.662Z,98464.29
2019-06-27T15:03:55.460Z,98462.39
2019-06-27T15:06:26.360Z,98459.85
2019-06-27T15:08:57.207Z,98458.74
2019-06-27T15:11:28.091Z,98465.45
2019-06-27T15:13:58.910Z,98465.64
2019-06-27T15:16:29.735Z,98463.58
2019-06-27T15:19:00.512Z,98468.71
2019-06-27T15:21:31.364Z,98470.59
2019-06-27T15:24:02.281Z,98466.86
2019-06-27T15:26:33.144Z,98468.08
2019-06-27T15:29:04.003Z,98463.17
2019-06-27T15:31:36.681Z,98460.59
2019-06-27T15:34:07.502Z,98454.52
2019-06-27T15:36:38.757Z,98462.84
2019-06-27T15:39:12.054Z,98463.55
2019-06-27T15:41:42.194Z,98456.22
2019-06-27T15:44:12.972Z,98458.65
2019-06-27T15:46:43.853Z,98457.86
2019-06-27T15:49:14.626Z,98466.20
2019-06-27T15:51:45.393Z,98469.31
2019-06-27T15:54:16.257Z,98461.51
2019-06-27T15:56:47.162Z,98453.92
2019-06-27T15:59:17.929Z,98455.88
2019-06-27T16:01:48.856Z,98448.48
2019-06-27T16:04:32.543Z,98457.48
2019-06-27T16:06:52.720Z,98456.53
2019-06-27T16:09:23.495Z,98454.19
2019-06-27T16:11:54.586Z,98450.59
2019-06-27T16:14:25.362Z,98443.42
2019-06-27T16:16:56.292Z,98453.31
2019-06-27T16:19:27.242Z,98448.13
2019-06-27T16:21:58.227Z,98455.28
2019-06-27T16:24:29.156Z,98457.99
2019-06-27T16:27:06.443Z,98453.59
2019-06-27T16:29:38.820Z,98450.29
2019-06-27T16:32:09.748Z,98453.34
2019-06-27T16:34:40.664Z,98452.92
2019-06-27T16:37:11.722Z,98448.29
2019-06-27T16:39:42.643Z,98450.89
2019-06-27T16:42:13.583Z,98447.42
2019-06-27T16:44:44.582Z,98451.05
2019-06-27T16:47:15.837Z,98450.72
2019-06-27T16:49:46.693Z,98451.02
2019-06-27T16:52:17.615Z,98457.73
2019-06-27T16:54:48.532Z,98455.62
2019-06-27T16:57:19.456Z,98434.23
2019-06-27T16:59:50.375Z,98463.81
2019-06-27T17:02:21.116Z,98453.31
2019-06-27T17:04:52.086Z,98458.23
2019-06-27T17:07:23.043Z,98454.01
2019-06-27T17:09:53.967Z,98455.68
2019-06-27T17:12:24.947Z,98459.72
2019-06-27T17:17:32.189Z,98452.98
2019-06-27T17:20:05.552Z,98458.57
2019-06-27T17:22:57.637Z,98463.39
2019-06-27T17:25:37.329Z,98458.81
2019-06-27T17:28:08.344Z,98452.45
2019-06-27T17:30:42.633Z,98455.66
2019-06-27T17:33:22.970Z,98448.92
2019-06-27T17:35:56.482Z,98461.81
2019-06-27T17:38:27.399Z,98462.72
2019-06-27T17:40:59.011Z,98457.98
2019-06-27T17:43:29.904Z,98456.52
2019-06-27T17:46:00.767Z,98458.61
2019-06-27T17:48:34.681Z,98465.34
2019-06-27T17:51:07.818Z,98463.70
2019-06-27T17:53:38.236Z,98455.44
2019-06-27T17:56:10.233Z,98456.20
2019-06-27T17:58:41.194Z,98457.12
2019-06-27T18:01:12.115Z,98463.56
2019-06-27T18:03:43.288Z,98462.23
2019-06-27T18:06:14.160Z,98460.09
2019-06-27T18:08:45.328Z,98456.32
2019-06-27T18:11:16.204Z,98457.38
2019-06-27T18:13:47.154Z,98463.11
2019-06-27T18:16:18.032Z,98458.09
2019-06-27T18:18:48.964Z,98465.00
2019-06-27T18:21:19.816Z,98464.02
2019-06-27T18:23:50.830Z,98466.45
2019-06-27T18:26:21.721Z,98455.94
2019-06-27T18:28:52.663Z,98463.80
2019-06-27T18:31:23.694Z,98464.14
2019-06-27T18:33:54.605Z,98451.78
2019-06-27T18:36:25.590Z,98451.78
2019-06-27T18:38:56.444Z,98461.94
2019-06-27T18:41:27.259Z,98461.94
2019-06-27T18:43:58.382Z,98444.28
2019-06-27T18:46:29.493Z,98448.56
2019-06-27T18:49:00.725Z,98449.03
2019-06-27T18:51:31.655Z,98449.47
2019-06-27T18:54:02.418Z,98449.47
2019-06-27T18:56:33.562Z,98449.62
2019-06-27T18:59:04.818Z,98452.85
2019-06-27T19:01:35.820Z,98450.46
2019-06-27T19:04:06.854Z,98460.27
2019-06-27T19:06:37.882Z,98460.27
2019-06-27T19:09:09.158Z,98464.94
2019-06-27T19:11:39.996Z,98464.94
2019-06-27T19:14:10.853Z,98475.31
2019-06-27T19:16:41.668Z,98475.56
2019-06-27T19:19:14.185Z,98482.25
2019-06-27T19:21:46.616Z,98488.68
2019-06-27T19:24:19.102Z,98491.27
2019-06-27T19:26:53.277Z,98497.88
2019-06-27T19:29:25.891Z,98497.52
2019-06-27T19:31:56.824Z,98503.60
2019-06-27T19:34:27.677Z,98503.78
2019-06-27T19:37:01.511Z,98506.24
2019-06-27T19:39:32.325Z,98503.16
2019-06-27T19:42:03.173Z,98504.38
2019-06-27T19:44:34.078Z,98506.00
2019-06-27T19:47:04.931Z,98511.36
2019-06-27T19:49:35.745Z,98509.17
2019-06-27T19:52:06.601Z,98515.09
2019-06-27T19:54:37.289Z,98521.02
2019-06-27T19:57:08.093Z,98518.76
2019-06-27T19:59:38.853Z,98520.41
2019-06-27T20:02:09.823Z,98524.98
2019-06-27T20:04:41.428Z,98528.14
2019-06-27T20:07:12.237Z,98528.41
2019-06-27T20:09:43.227Z,98528.09
2019-06-27T20:12:14.066Z,98528.58
2019-06-27T20:14:44.836Z,98535.23
2019-06-27T20:17:16.699Z,98535.23
2019-06-27T20:19:47.508Z,98540.38
2019-06-27T20:22:18.298Z,98535.89
2019-06-27T20:24:49.133Z,98540.44
2019-06-27T20:27:19.962Z,98542.38
2019-06-27T20:29:50.728Z,98535.92
2019-06-27T20:32:21.458Z,98541.17
2019-06-27T20:34:52.214Z,98549.42
2019-06-27T20:37:22.960Z,98544.69
2019-06-27T20:39:53.825Z,98547.83
2019-06-27T20:42:24.638Z,98553.02
2019-06-27T20:44:55.433Z,98551.27
2019-06-27T20:47:26.258Z,98550.60
2019-06-27T20:49:57.018Z,98550.55
2019-06-27T20:52:27.806Z,98562.83
2019-06-27T20:54:58.639Z,98564.16
2019-06-27T20:57:29.442Z,98565.54
2019-06-27T21:00:00.247Z,98565.48
2019-06-27T21:02:31.015Z,98562.15
2019-06-27T21:05:01.950Z,98567.28
2019-06-27T21:07:33.019Z,98572.64
2019-06-27T21:10:08.627Z,98566.45
2019-06-27T21:12:39.397Z,98575.19
2019-06-27T21:15:11.834Z,98577.89
2019-06-27T21:17:42.783Z,98575.76
2019-06-27T21:20:13.828Z,98572.05
2019-06-27T21:22:46.100Z,98582.47
2019-06-27T21:25:17.288Z,98574.66
2019-06-27T21:27:48.391Z,98576.70
2019-06-27T21:30:19.225Z,98577.82
2019-06-27T21:32:50.022Z,98580.35
2019-06-27T21:35:20.780Z,98580.95
2019-06-27T21:37:54.839Z,98572.30
2019-06-27T21:40:25.722Z,98580.77
2019-06-27T21:42:56.612Z,98581.00
2019-06-27T21:45:27.697Z,98587.27
2019-06-27T21:47:58.602Z,98586.92
2019-06-27T21:50:29.388Z,98595.98
2019-06-27T21:53:00.153Z,98591.66
2019-06-27T21:55:31.088Z,98585.28
2019-06-27T21:58:01.848Z,98596.84
2019-06-27T22:00:33.403Z,98596.84
2019-06-27T22:03:04.693Z,98596.02
2019-06-27T22:05:35.486Z,98598.53
2019-06-27T22:08:06.326Z,98598.05
2019-06-27T22:10:37.318Z,98603.95
2019-06-27T22:13:08.093Z,98601.53
2019-06-27T22:15:38.955Z,98599.95
2019-06-27T22:18:09.795Z,98605.00
2019-06-27T22:20:40.648Z,98605.00
2019-06-27T22:23:11.465Z,98604.27
2019-06-27T22:25:42.238Z,98599.05
2019-06-27T22:28:13.203Z,98606.87
2019-06-27T22:30:44.704Z,98605.19
2019-06-27T22:33:15.540Z,98607.73
2019-06-27T22:35:46.311Z,98605.19
2019-06-27T22:38:34.867Z,98600.36
2019-06-27T22:41:23.972Z,98607.94
2019-06-27T22:44:12.892Z,98610.54
2019-06-27T22:47:01.303Z,98610.16
2019-06-27T22:49:31.787Z,98609.05
2019-06-27T22:52:16.057Z,98611.63
2019-06-27T22:54:51.226Z,98607.61
2019-06-27T22:57:22.144Z,98610.37
2019-06-27T22:59:53.063Z,98608.57
2019-06-27T23:02:23.773Z,98615.03
2019-06-27T23:04:54.540Z,98607.18
2019-06-27T23:07:25.270Z,98601.17
2019-06-27T23:09:57.489Z,98602.45
2019-06-27T23:12:28.457Z,98604.70
2019-06-27T23:14:59.148Z,98600.61
2019-06-27T23:17:29.923Z,98601.03
2019-06-27T23:20:00.722Z,98598.70
2019-06-27T23:22:31.495Z,98599.36
2019-06-27T23:25:02.302Z,98598.59
2019-06-27T23:27:33.105Z,98596.50
2019-06-27T23:30:04.670Z,98594.61
2019-06-27T23:32:35.372Z,98596.81
2019-06-27T23:35:07.321Z,98596.88
2019-06-27T23:37:41.084Z,98597.08
2019-06-27T23:40:15.041Z,98600.53
2019-06-27T23:42:46.016Z,98591.75
2019-06-27T23:45:16.868Z,98598.97
2019-06-27T23:47:47.726Z,98597.48
2019-06-27T23:50:21.280Z,98602.41
2019-06-27T23:52:52.033Z,98607.69
2019-06-27T23:55:22.911Z,98611.41
2019-06-27T23:57:53.600Z,98619.20
